BAW4 KJFK-EGLL
Flight info
| Callsign | BAW4 |
|---|---|
| Flight time | N/A |
| Altitude | 25000 |
| Route | JFK5 SHIPP C/LEOES/N0787F250F450 DCT LINND 1SO C/3952N06815W/M200F450F600 4200N06000W DCT 4410N05230W 4445N05000W 4704N04000W 4822N03000W 4848N02000W 4848N01500W TAKAS/N0577F370 DCT ORTAC DCT DOMUT DCT KATHY DCT HAZEL |
| Aircraft | CONC/H-SDFHIRY/C |
Departure
| Time | 2026-05-09 16:02 |
|---|---|
| Airport | John F. Kennedy International Airport (KJFK) |
Arrival
| Time | N/A |
|---|---|
| Airport | London Heathrow Airport (EGLL) |
| Time | Latitude | Longitude | Altitude | Speed | Heading |
|---|---|---|---|---|---|
| 2026-05-09 15:02 | 40.64964 | -73.78444 | 25 ft | 0 kts | 109° |
| 2026-05-09 15:46 | 40.64966 | -73.78454 | 24 ft | 4 kts | 103° |
| 2026-05-09 15:46 | 40.64963 | -73.78482 | 24 ft | 4 kts | 52° |
| 2026-05-09 15:46 | 40.64945 | -73.78494 | 24 ft | 2 kts | 2° |
| 2026-05-09 15:46 | 40.64942 | -73.78494 | 24 ft | 0 kts | 0° |
| 2026-05-09 15:50 | 40.64946 | -73.78494 | 24 ft | 2 kts | 0° |
| 2026-05-09 15:50 | 40.64969 | -73.78494 | 24 ft | 5 kts | 0° |
| 2026-05-09 15:50 | 40.65014 | -73.78491 | 24 ft | 8 kts | 5° |
| 2026-05-09 15:51 | 40.65080 | -73.78480 | 24 ft | 11 kts | 12° |
| 2026-05-09 15:51 | 40.65145 | -73.78449 | 24 ft | 7 kts | 23° |
| 2026-05-09 15:51 | 40.65198 | -73.78419 | 24 ft | 5 kts | 24° |
| 2026-05-09 15:51 | 40.65235 | -73.78395 | 24 ft | 8 kts | 34° |
| 2026-05-09 15:52 | 40.65218 | -73.78274 | 24 ft | 7 kts | 121° |
| 2026-05-09 15:52 | 40.65189 | -73.78212 | 24 ft | 10 kts | 121° |
| 2026-05-09 15:52 | 40.65149 | -73.78124 | 24 ft | 13 kts | 121° |
| 2026-05-09 15:53 | 40.65111 | -73.78039 | 24 ft | 7 kts | 114° |
| 2026-05-09 15:53 | 40.65127 | -73.77995 | 24 ft | 7 kts | 43° |
| 2026-05-09 15:53 | 40.65159 | -73.77969 | 24 ft | 1 kts | 30° |
| 2026-05-09 15:53 | 40.65160 | -73.77968 | 24 ft | 0 kts | 30° |
| 2026-05-09 15:55 | 40.65169 | -73.77960 | 24 ft | 3 kts | 30° |
| 2026-05-09 15:56 | 40.65198 | -73.77938 | 24 ft | 6 kts | 31° |
| 2026-05-09 15:56 | 40.65246 | -73.77901 | 24 ft | 10 kts | 30° |
| 2026-05-09 15:56 | 40.65314 | -73.77849 | 24 ft | 12 kts | 30° |
| 2026-05-09 15:56 | 40.65340 | -73.77794 | 24 ft | 8 kts | 99° |
| 2026-05-09 15:57 | 40.65313 | -73.77722 | 24 ft | 10 kts | 121° |
| 2026-05-09 15:57 | 40.65272 | -73.77630 | 24 ft | 13 kts | 121° |
| 2026-05-09 15:57 | 40.65219 | -73.77513 | 24 ft | 16 kts | 121° |
| 2026-05-09 15:57 | 40.65161 | -73.77385 | 24 ft | 16 kts | 121° |
| 2026-05-09 15:58 | 40.65099 | -73.77249 | 24 ft | 19 kts | 121° |
| 2026-05-09 15:58 | 40.65036 | -73.77110 | 24 ft | 17 kts | 121° |
| 2026-05-09 15:58 | 40.64972 | -73.76969 | 24 ft | 17 kts | 121° |
| 2026-05-09 15:58 | 40.64906 | -73.76822 | 24 ft | 20 kts | 121° |
| 2026-05-09 15:59 | 40.64867 | -73.76727 | 24 ft | 5 kts | 97° |
| 2026-05-09 15:59 | 40.64892 | -73.76689 | 24 ft | 7 kts | 33° |
| 2026-05-09 15:59 | 40.64945 | -73.76648 | 24 ft | 10 kts | 30° |
| 2026-05-09 15:59 | 40.65017 | -73.76592 | 24 ft | 14 kts | 30° |
| 2026-05-09 16:00 | 40.65084 | -73.76541 | 24 ft | 9 kts | 30° |
| 2026-05-09 16:00 | 40.65098 | -73.76527 | 24 ft | 7 kts | 43° |
| 2026-05-09 16:00 | 40.65086 | -73.76446 | 24 ft | 8 kts | 122° |
| 2026-05-09 16:00 | 40.65052 | -73.76373 | 24 ft | 11 kts | 122° |
| 2026-05-09 16:01 | 40.65031 | -73.76349 | 24 ft | 3 kts | 179° |
| 2026-05-09 16:01 | 40.65021 | -73.76357 | 24 ft | 2 kts | 212° |
| 2026-05-09 16:01 | 40.64963 | -73.76403 | 24 ft | 35 kts | 211° |
| 2026-05-09 16:01 | 40.64511 | -73.76756 | 24 ft | 115 kts | 210° |
| 2026-05-09 16:02 | 40.63609 | -73.77460 | 24 ft | 185 kts | 210° |
| 2026-05-09 16:02 | 40.60885 | -73.79586 | 631 ft | 256 kts | 210° |
| 2026-05-09 16:02 | 40.59405 | -73.80792 | 1147 ft | 250 kts | 217° |
| 2026-05-09 16:03 | 40.58085 | -73.82249 | 1498 ft | 245 kts | 220° |
| 2026-05-09 16:03 | 40.56687 | -73.83429 | 1914 ft | 233 kts | 197° |
| 2026-05-09 16:03 | 40.55119 | -73.83716 | 2283 ft | 228 kts | 173° |
| 2026-05-09 16:03 | 40.53610 | -73.83046 | 2454 ft | 234 kts | 148° |
| 2026-05-09 16:04 | 40.52458 | -73.81513 | 2605 ft | 242 kts | 122° |
| 2026-05-09 16:04 | 40.51796 | -73.79448 | 2688 ft | 248 kts | 115° |
| 2026-05-09 16:04 | 40.51195 | -73.77283 | 2785 ft | 257 kts | 116° |
| 2026-05-09 16:04 | 40.50535 | -73.75089 | 3252 ft | 260 kts | 119° |
| 2026-05-09 16:05 | 40.49786 | -73.72894 | 3778 ft | 267 kts | 121° |
| 2026-05-09 16:05 | 40.48979 | -73.70645 | 4382 ft | 276 kts | 121° |
| 2026-05-09 16:05 | 40.48143 | -73.68341 | 5052 ft | 288 kts | 121° |
| 2026-05-09 16:05 | 40.47260 | -73.65905 | 5813 ft | 303 kts | 121° |
| 2026-05-09 16:06 | 40.46335 | -73.63317 | 6727 ft | 320 kts | 120° |
| 2026-05-09 16:06 | 40.45402 | -73.60618 | 7983 ft | 329 kts | 119° |
| 2026-05-09 16:06 | 40.44460 | -73.57841 | 9317 ft | 335 kts | 119° |
| 2026-05-09 16:06 | 40.43505 | -73.55015 | 10538 ft | 347 kts | 119° |
| 2026-05-09 16:07 | 40.42471 | -73.51991 | 11070 ft | 379 kts | 119° |
| 2026-05-09 16:07 | 40.41351 | -73.48734 | 11547 ft | 400 kts | 119° |
| 2026-05-09 16:07 | 40.40194 | -73.45355 | 12161 ft | 410 kts | 118° |
| 2026-05-09 16:07 | 40.39021 | -73.41916 | 12838 ft | 417 kts | 118° |
| 2026-05-09 16:08 | 40.37832 | -73.38439 | 13357 ft | 428 kts | 118° |
| 2026-05-09 16:08 | 40.36593 | -73.34841 | 13865 ft | 438 kts | 118° |
| 2026-05-09 16:08 | 40.35321 | -73.31166 | 14418 ft | 446 kts | 118° |
| 2026-05-09 16:08 | 40.34019 | -73.27453 | 15001 ft | 451 kts | 122° |
| 2026-05-09 16:09 | 40.32426 | -73.23895 | 15600 ft | 453 kts | 128° |
| 2026-05-09 16:09 | 40.30651 | -73.20460 | 16213 ft | 457 kts | 130° |
| 2026-05-09 16:09 | 40.28766 | -73.17062 | 16834 ft | 462 kts | 131° |
| 2026-05-09 16:09 | 40.26811 | -73.13689 | 17407 ft | 470 kts | 132° |
| 2026-05-09 16:10 | 40.24770 | -73.10248 | 17613 ft | 487 kts | 132° |
| 2026-05-09 16:10 | 40.22640 | -73.06694 | 17850 ft | 503 kts | 133° |
| 2026-05-09 16:10 | 40.20477 | -73.03101 | 18163 ft | 516 kts | 132° |
| 2026-05-09 16:10 | 40.18237 | -72.99367 | 18549 ft | 528 kts | 132° |
| 2026-05-09 16:11 | 40.15953 | -72.95514 | 18996 ft | 540 kts | 131° |
| 2026-05-09 16:11 | 40.13642 | -72.91584 | 19604 ft | 549 kts | 131° |
| 2026-05-09 16:11 | 40.11304 | -72.87592 | 20444 ft | 556 kts | 131° |
| 2026-05-09 16:11 | 40.08937 | -72.83553 | 21416 ft | 562 kts | 131° |
| 2026-05-09 16:12 | 40.06539 | -72.79488 | 22389 ft | 569 kts | 132° |
| 2026-05-09 16:12 | 40.04100 | -72.75378 | 23312 ft | 576 kts | 132° |
| 2026-05-09 16:12 | 40.01628 | -72.71229 | 24120 ft | 582 kts | 132° |
| 2026-05-09 16:12 | 39.99144 | -72.67064 | 24758 ft | 583 kts | 132° |
| 2026-05-09 16:13 | 39.96634 | -72.62864 | 25014 ft | 588 kts | 132° |
| 2026-05-09 16:13 | 39.94122 | -72.58650 | 25025 ft | 589 kts | 132° |
| 2026-05-09 16:13 | 39.91615 | -72.54432 | 25031 ft | 589 kts | 132° |
| 2026-05-09 16:13 | 39.89106 | -72.50214 | 25033 ft | 589 kts | 132° |
| 2026-05-09 16:14 | 39.86590 | -72.45998 | 25034 ft | 589 kts | 132° |
| 2026-05-09 16:14 | 39.84060 | -72.41779 | 25099 ft | 592 kts | 132° |
| 2026-05-09 16:14 | 39.81507 | -72.37537 | 25565 ft | 599 kts | 132° |
| 2026-05-09 16:14 | 39.78923 | -72.33250 | 26213 ft | 602 kts | 132° |
| 2026-05-09 16:15 | 39.76362 | -72.28995 | 26739 ft | 607 kts | 132° |
| 2026-05-09 16:15 | 39.73745 | -72.24643 | 27180 ft | 611 kts | 132° |
| 2026-05-09 16:15 | 39.71118 | -72.20278 | 27546 ft | 614 kts | 132° |
| 2026-05-09 16:15 | 39.68475 | -72.15895 | 27848 ft | 617 kts | 132° |
| 2026-05-09 16:16 | 39.65821 | -72.11505 | 28102 ft | 619 kts | 132° |
| 2026-05-09 16:16 | 39.63154 | -72.07106 | 28554 ft | 623 kts | 132° |
| 2026-05-09 16:16 | 39.60466 | -72.02681 | 28959 ft | 627 kts | 132° |
| 2026-05-09 16:16 | 39.57759 | -71.98230 | 29285 ft | 630 kts | 132° |
| 2026-05-09 16:17 | 39.55039 | -71.93755 | 29590 ft | 633 kts | 132° |
| 2026-05-09 16:17 | 39.52308 | -71.89267 | 29874 ft | 636 kts | 132° |
| 2026-05-09 16:17 | 39.49572 | -71.84748 | 30194 ft | 640 kts | 130° |
| 2026-05-09 16:17 | 39.47137 | -71.79881 | 30413 ft | 650 kts | 120° |
| 2026-05-09 16:18 | 39.45309 | -71.74492 | 30663 ft | 658 kts | 110° |
| 2026-05-09 16:18 | 39.44159 | -71.68799 | 30898 ft | 666 kts | 101° |
| 2026-05-09 16:18 | 39.43696 | -71.62812 | 31119 ft | 673 kts | 91° |
| 2026-05-09 16:18 | 39.43872 | -71.56747 | 31390 ft | 678 kts | 85° |
| 2026-05-09 16:19 | 39.44349 | -71.50658 | 31709 ft | 681 kts | 83° |
| 2026-05-09 16:19 | 39.44969 | -71.44559 | 32035 ft | 687 kts | 82° |
| 2026-05-09 16:19 | 39.45692 | -71.38401 | 32300 ft | 695 kts | 81° |
| 2026-05-09 16:19 | 39.46520 | -71.32196 | 32629 ft | 704 kts | 80° |
| 2026-05-09 16:20 | 39.47422 | -71.25922 | 33037 ft | 716 kts | 79° |
| 2026-05-09 16:20 | 39.48373 | -71.19535 | 33488 ft | 729 kts | 79° |
| 2026-05-09 16:20 | 39.49357 | -71.13027 | 33934 ft | 743 kts | 79° |
| 2026-05-09 16:20 | 39.50363 | -71.06401 | 34385 ft | 757 kts | 79° |
| 2026-05-09 16:21 | 39.51033 | -71.01951 | 34671 ft | 766 kts | 79° |
| 2026-05-09 16:21 | 39.52039 | -70.95106 | 35080 ft | 779 kts | 79° |
| 2026-05-09 16:21 | 39.53037 | -70.88144 | 35466 ft | 792 kts | 80° |
| 2026-05-09 16:21 | 39.54032 | -70.81053 | 35855 ft | 805 kts | 80° |
| 2026-05-09 16:22 | 39.55349 | -70.71494 | 36351 ft | 821 kts | 80° |
| 2026-05-09 16:22 | 39.56024 | -70.66540 | 36594 ft | 830 kts | 80° |
| 2026-05-09 16:22 | 39.57030 | -70.59119 | 36972 ft | 842 kts | 80° |
| 2026-05-09 16:22 | 39.58046 | -70.51583 | 37342 ft | 854 kts | 80° |
| 2026-05-09 16:23 | 39.59074 | -70.43939 | 37714 ft | 868 kts | 80° |
| 2026-05-09 16:23 | 39.60120 | -70.36159 | 38099 ft | 881 kts | 80° |
| 2026-05-09 16:23 | 39.61166 | -70.28372 | 38494 ft | 895 kts | 80° |
| 2026-05-09 16:23 | 39.62246 | -70.20337 | 38902 ft | 910 kts | 80° |
| 2026-05-09 16:24 | 39.63342 | -70.12186 | 39311 ft | 924 kts | 80° |
| 2026-05-09 16:24 | 39.64453 | -70.03899 | 39776 ft | 938 kts | 80° |
| 2026-05-09 16:24 | 39.65576 | -69.95485 | 40221 ft | 952 kts | 81° |
| 2026-05-09 16:24 | 39.66707 | -69.86952 | 40641 ft | 966 kts | 81° |
| 2026-05-09 16:25 | 39.67847 | -69.78287 | 41049 ft | 980 kts | 81° |
| 2026-05-09 16:25 | 39.68996 | -69.69477 | 41440 ft | 994 kts | 81° |
| 2026-05-09 16:25 | 39.70148 | -69.60569 | 41790 ft | 1007 kts | 81° |
| 2026-05-09 16:25 | 39.71310 | -69.51519 | 42151 ft | 1020 kts | 81° |
| 2026-05-09 16:26 | 39.72460 | -69.42485 | 42480 ft | 1033 kts | 81° |
| 2026-05-09 16:26 | 39.73629 | -69.33215 | 42785 ft | 1045 kts | 81° |
| 2026-05-09 16:26 | 39.74800 | -69.23844 | 43099 ft | 1055 kts | 81° |
| 2026-05-09 16:26 | 39.75973 | -69.14396 | 43356 ft | 1060 kts | 81° |
| 2026-05-09 16:27 | 39.77142 | -69.04919 | 43606 ft | 1065 kts | 81° |
| 2026-05-09 16:27 | 39.78310 | -68.95392 | 43836 ft | 1068 kts | 81° |
| 2026-05-09 16:27 | 39.79477 | -68.85822 | 44048 ft | 1072 kts | 81° |
| 2026-05-09 16:27 | 39.80648 | -68.76232 | 44247 ft | 1075 kts | 81° |
| 2026-05-09 16:28 | 39.81826 | -68.66614 | 44430 ft | 1078 kts | 81° |
| 2026-05-09 16:28 | 39.83007 | -68.56957 | 44598 ft | 1081 kts | 81° |
| 2026-05-09 16:28 | 39.84183 | -68.47276 | 44768 ft | 1083 kts | 81° |
| 2026-05-09 16:28 | 39.85320 | -68.37686 | 44918 ft | 1086 kts | 82° |
| 2026-05-09 16:29 | 39.86448 | -68.27945 | 45057 ft | 1088 kts | 82° |
| 2026-05-09 16:29 | 39.87553 | -68.18194 | 45202 ft | 1090 kts | 82° |
| 2026-05-09 16:29 | 39.88643 | -68.08413 | 45333 ft | 1092 kts | 82° |
| 2026-05-09 16:29 | 39.89719 | -67.98624 | 45454 ft | 1094 kts | 82° |
| 2026-05-09 16:30 | 39.90785 | -67.88797 | 45575 ft | 1096 kts | 82° |
| 2026-05-09 16:30 | 39.91843 | -67.78950 | 45688 ft | 1098 kts | 82° |
| 2026-05-09 16:30 | 39.92895 | -67.69070 | 45804 ft | 1100 kts | 82° |
| 2026-05-09 16:30 | 39.94142 | -67.59216 | 45870 ft | 1103 kts | 78° |
| 2026-05-09 16:31 | 39.97589 | -67.39718 | 46041 ft | 1106 kts | 75° |
| 2026-05-09 16:31 | 39.99572 | -67.30005 | 46184 ft | 1108 kts | 74° |
| 2026-05-09 16:31 | 40.01662 | -67.20312 | 46328 ft | 1111 kts | 73° |
| 2026-05-09 16:32 | 40.03839 | -67.10618 | 46469 ft | 1113 kts | 73° |
| 2026-05-09 16:32 | 40.05316 | -67.04220 | 46556 ft | 1114 kts | 73° |
| 2026-05-09 16:32 | 40.08390 | -66.91275 | 46728 ft | 1117 kts | 72° |
| 2026-05-09 16:32 | 40.10726 | -66.81715 | 46848 ft | 1120 kts | 72° |
| 2026-05-09 16:33 | 40.13138 | -66.72047 | 46971 ft | 1122 kts | 71° |
| 2026-05-09 16:33 | 40.15604 | -66.62339 | 47085 ft | 1124 kts | 71° |
| 2026-05-09 16:33 | 40.18109 | -66.52646 | 47201 ft | 1126 kts | 71° |
| 2026-05-09 16:33 | 40.20655 | -66.42945 | 47308 ft | 1128 kts | 71° |
| 2026-05-09 16:34 | 40.23240 | -66.33249 | 47422 ft | 1130 kts | 70° |
| 2026-05-09 16:34 | 40.25863 | -66.23545 | 47530 ft | 1132 kts | 70° |
| 2026-05-09 16:34 | 40.28527 | -66.13832 | 47643 ft | 1134 kts | 70° |
| 2026-05-09 16:34 | 40.31235 | -66.04098 | 47750 ft | 1136 kts | 69° |
| 2026-05-09 16:35 | 40.33983 | -65.94363 | 47862 ft | 1138 kts | 69° |
| 2026-05-09 16:35 | 40.36737 | -65.84759 | 47967 ft | 1140 kts | 69° |
| 2026-05-09 16:35 | 40.39581 | -65.75048 | 48082 ft | 1142 kts | 68° |
| 2026-05-09 16:35 | 40.42497 | -65.65353 | 48188 ft | 1144 kts | 68° |
| 2026-05-09 16:36 | 40.45473 | -65.55665 | 48303 ft | 1146 kts | 68° |
| 2026-05-09 16:36 | 40.54621 | -65.26485 | 48647 ft | 1152 kts | 67° |
| 2026-05-09 16:37 | 40.57691 | -65.16734 | 48758 ft | 1154 kts | 67° |
| 2026-05-09 16:37 | 40.60742 | -65.06954 | 48864 ft | 1157 kts | 68° |
| 2026-05-09 16:37 | 40.63776 | -64.97118 | 48974 ft | 1159 kts | 68° |
| 2026-05-09 16:37 | 40.66778 | -64.87270 | 49083 ft | 1161 kts | 68° |
| 2026-05-09 16:38 | 40.69735 | -64.77468 | 49193 ft | 1163 kts | 68° |
| 2026-05-09 16:38 | 40.72696 | -64.67565 | 49296 ft | 1164 kts | 68° |
| 2026-05-09 16:38 | 40.78592 | -64.47624 | 49471 ft | 1168 kts | 69° |
| 2026-05-09 16:39 | 40.84459 | -64.27564 | 49623 ft | 1171 kts | 69° |
| 2026-05-09 16:39 | 40.90311 | -64.07414 | 49748 ft | 1174 kts | 69° |
| 2026-05-09 16:40 | 40.96146 | -63.87224 | 49862 ft | 1175 kts | 69° |
| 2026-05-09 16:42 | 41.16449 | -63.16269 | 50136 ft | 1179 kts | 69° |
| 2026-05-09 16:42 | 41.19325 | -63.06073 | 50166 ft | 1180 kts | 70° |
| 2026-05-09 16:42 | 41.25059 | -62.85606 | 50213 ft | 1182 kts | 70° |
| 2026-05-09 16:43 | 41.30754 | -62.65078 | 50298 ft | 1181 kts | 70° |
| 2026-05-09 16:43 | 41.36363 | -62.44677 | 50366 ft | 1180 kts | 70° |
| 2026-05-09 16:44 | 41.41964 | -62.24125 | 50428 ft | 1179 kts | 70° |
| 2026-05-09 16:44 | 41.47520 | -62.03565 | 50475 ft | 1178 kts | 70° |
| 2026-05-09 16:45 | 41.53036 | -61.82988 | 50520 ft | 1178 kts | 71° |
| 2026-05-09 16:45 | 41.58524 | -61.62348 | 50561 ft | 1178 kts | 71° |
| 2026-05-09 16:46 | 41.63941 | -61.41812 | 50599 ft | 1177 kts | 71° |
| 2026-05-09 16:46 | 41.69346 | -61.21152 | 50636 ft | 1178 kts | 71° |
| 2026-05-09 16:47 | 41.74721 | -61.00432 | 50669 ft | 1178 kts | 71° |
| 2026-05-09 16:47 | 41.80058 | -60.79680 | 50701 ft | 1178 kts | 71° |
| 2026-05-09 16:48 | 41.85391 | -60.58919 | 50722 ft | 1178 kts | 71° |
| 2026-05-09 16:48 | 41.90782 | -60.38148 | 50736 ft | 1178 kts | 71° |
| 2026-05-09 16:49 | 41.96275 | -60.17399 | 50744 ft | 1178 kts | 70° |
| 2026-05-09 16:50 | 42.04751 | -59.86469 | 50763 ft | 1179 kts | 69° |
| 2026-05-09 16:50 | 42.10646 | -59.65843 | 50782 ft | 1179 kts | 69° |
| 2026-05-09 16:51 | 42.16806 | -59.45363 | 50808 ft | 1179 kts | 68° |
| 2026-05-09 16:51 | 42.23168 | -59.24956 | 50832 ft | 1179 kts | 67° |
| 2026-05-09 16:52 | 42.29605 | -59.04576 | 50862 ft | 1178 kts | 67° |
| 2026-05-09 16:52 | 42.35962 | -58.84312 | 50888 ft | 1178 kts | 68° |
| 2026-05-09 16:53 | 42.42242 | -58.63805 | 50917 ft | 1177 kts | 68° |
| 2026-05-09 16:53 | 42.48401 | -58.43249 | 50947 ft | 1177 kts | 68° |
| 2026-05-09 16:54 | 42.54438 | -58.22770 | 50982 ft | 1176 kts | 69° |
| 2026-05-09 16:54 | 42.60451 | -58.02139 | 51013 ft | 1176 kts | 69° |
| 2026-05-09 16:55 | 42.66432 | -57.81461 | 51038 ft | 1176 kts | 69° |
| 2026-05-09 16:55 | 42.72389 | -57.60755 | 51064 ft | 1176 kts | 69° |
| 2026-05-09 16:56 | 42.78336 | -57.40002 | 51089 ft | 1176 kts | 69° |
| 2026-05-09 16:56 | 42.84262 | -57.19231 | 51113 ft | 1176 kts | 69° |
| 2026-05-09 16:57 | 42.90157 | -56.98439 | 51136 ft | 1176 kts | 69° |
| 2026-05-09 16:57 | 42.96021 | -56.77585 | 51157 ft | 1177 kts | 70° |
| 2026-05-09 16:58 | 43.01836 | -56.56702 | 51184 ft | 1176 kts | 70° |
| 2026-05-09 16:58 | 43.07607 | -56.35773 | 51204 ft | 1176 kts | 70° |
| 2026-05-09 16:59 | 43.13338 | -56.14783 | 51220 ft | 1177 kts | 70° |
| 2026-05-09 16:59 | 43.18991 | -55.93887 | 51226 ft | 1176 kts | 70° |
| 2026-05-09 17:00 | 43.24636 | -55.72842 | 51218 ft | 1176 kts | 70° |
| 2026-05-09 17:00 | 43.30248 | -55.51745 | 51218 ft | 1176 kts | 71° |
| 2026-05-09 17:01 | 43.35820 | -55.30614 | 51225 ft | 1176 kts | 71° |
| 2026-05-09 17:01 | 43.41356 | -55.09446 | 51241 ft | 1176 kts | 71° |
| 2026-05-09 17:02 | 43.46856 | -54.88224 | 51263 ft | 1176 kts | 71° |
| 2026-05-09 17:02 | 43.52280 | -54.67113 | 51295 ft | 1176 kts | 71° |
| 2026-05-09 17:03 | 43.57704 | -54.45805 | 51323 ft | 1175 kts | 71° |
| 2026-05-09 17:04 | 43.76329 | -53.71083 | 51434 ft | 1174 kts | 72° |
| 2026-05-09 17:05 | 43.78950 | -53.60371 | 51449 ft | 1174 kts | 72° |
| 2026-05-09 17:05 | 43.84124 | -53.39075 | 51480 ft | 1174 kts | 72° |
| 2026-05-09 17:06 | 43.89287 | -53.17622 | 51515 ft | 1173 kts | 72° |
| 2026-05-09 17:06 | 43.94409 | -52.96150 | 51549 ft | 1172 kts | 72° |
| 2026-05-09 17:07 | 43.99506 | -52.74669 | 51578 ft | 1172 kts | 72° |
| 2026-05-09 17:07 | 44.04648 | -52.53144 | 51597 ft | 1170 kts | 72° |
| 2026-05-09 17:08 | 44.08976 | -52.35308 | 51593 ft | 1170 kts | 71° |
| 2026-05-09 17:08 | 44.17906 | -51.99723 | 51609 ft | 1170 kts | 71° |
| 2026-05-09 17:09 | 44.23495 | -51.78420 | 51629 ft | 1170 kts | 70° |
| 2026-05-09 17:09 | 44.28340 | -51.60652 | 51662 ft | 1170 kts | 69° |
| 2026-05-09 17:10 | 44.34372 | -51.39685 | 51708 ft | 1170 kts | 68° |
| 2026-05-09 17:10 | 44.40631 | -51.18674 | 51778 ft | 1170 kts | 68° |
| 2026-05-09 17:11 | 44.46952 | -50.97707 | 51844 ft | 1168 kts | 68° |
| 2026-05-09 17:11 | 44.53114 | -50.76654 | 51903 ft | 1167 kts | 69° |
| 2026-05-09 17:12 | 44.59100 | -50.55495 | 51954 ft | 1166 kts | 69° |
| 2026-05-09 17:12 | 44.65046 | -50.34270 | 52000 ft | 1166 kts | 69° |
| 2026-05-09 17:13 | 44.71049 | -50.13109 | 52043 ft | 1165 kts | 68° |
| 2026-05-09 17:13 | 44.77138 | -49.91978 | 52095 ft | 1164 kts | 68° |
| 2026-05-09 17:14 | 44.83215 | -49.71032 | 52137 ft | 1162 kts | 68° |
| 2026-05-09 17:14 | 44.89293 | -49.49907 | 52176 ft | 1162 kts | 69° |
| 2026-05-09 17:15 | 44.95258 | -49.28717 | 52222 ft | 1161 kts | 69° |
| 2026-05-09 17:15 | 45.01134 | -49.07439 | 52266 ft | 1160 kts | 69° |
| 2026-05-09 17:17 | 45.24089 | -48.22196 | 52459 ft | 1157 kts | 69° |
| 2026-05-09 17:18 | 45.29774 | -48.00807 | 52504 ft | 1157 kts | 70° |
| 2026-05-09 17:18 | 45.35383 | -47.79524 | 52558 ft | 1156 kts | 70° |
| 2026-05-09 17:19 | 45.40975 | -47.58075 | 52610 ft | 1155 kts | 70° |
| 2026-05-09 17:19 | 45.46509 | -47.36610 | 52656 ft | 1155 kts | 70° |
| 2026-05-09 17:20 | 45.51998 | -47.15102 | 52705 ft | 1154 kts | 70° |
| 2026-05-09 17:20 | 45.57444 | -46.93560 | 52762 ft | 1154 kts | 70° |
| 2026-05-09 17:21 | 45.62852 | -46.71983 | 52819 ft | 1153 kts | 70° |
| 2026-05-09 17:21 | 45.68224 | -46.50365 | 52878 ft | 1153 kts | 70° |
| 2026-05-09 17:22 | 45.73550 | -46.28735 | 52935 ft | 1152 kts | 71° |
| 2026-05-09 17:22 | 45.78832 | -46.07079 | 52989 ft | 1152 kts | 71° |
| 2026-05-09 17:23 | 45.84074 | -45.85373 | 53038 ft | 1151 kts | 71° |
| 2026-05-09 17:23 | 45.89234 | -45.63789 | 53087 ft | 1151 kts | 71° |
| 2026-05-09 17:25 | 46.02032 | -45.09334 | 53200 ft | 1149 kts | 71° |
| 2026-05-09 17:25 | 46.04557 | -44.98427 | 53225 ft | 1148 kts | 71° |
| 2026-05-09 17:25 | 46.09578 | -44.76582 | 53269 ft | 1147 kts | 72° |
| 2026-05-09 17:26 | 46.14548 | -44.54740 | 53307 ft | 1146 kts | 72° |
| 2026-05-09 17:26 | 46.19448 | -44.32985 | 53346 ft | 1145 kts | 72° |
| 2026-05-09 17:27 | 46.24332 | -44.11075 | 53385 ft | 1145 kts | 72° |
| 2026-05-09 17:27 | 46.29181 | -43.89098 | 53422 ft | 1144 kts | 72° |
| 2026-05-09 17:28 | 46.33973 | -43.67149 | 53454 ft | 1145 kts | 72° |
| 2026-05-09 17:28 | 46.38699 | -43.45275 | 53492 ft | 1144 kts | 72° |
| 2026-05-09 17:29 | 46.43408 | -43.23245 | 53526 ft | 1144 kts | 73° |
| 2026-05-09 17:29 | 46.48077 | -43.01169 | 53563 ft | 1143 kts | 73° |
| 2026-05-09 17:30 | 46.52698 | -42.79076 | 53593 ft | 1143 kts | 73° |
| 2026-05-09 17:30 | 46.57279 | -42.56931 | 53624 ft | 1143 kts | 73° |
| 2026-05-09 17:31 | 46.61814 | -42.34765 | 53655 ft | 1143 kts | 73° |
| 2026-05-09 17:32 | 46.72963 | -41.79177 | 53730 ft | 1143 kts | 74° |
| 2026-05-09 17:33 | 46.77318 | -41.57029 | 53758 ft | 1143 kts | 74° |
| 2026-05-09 17:33 | 46.81661 | -41.34683 | 53785 ft | 1143 kts | 74° |
| 2026-05-09 17:34 | 46.85960 | -41.12304 | 53810 ft | 1144 kts | 74° |
| 2026-05-09 17:35 | 47.00710 | -40.33710 | 53893 ft | 1144 kts | 75° |
| 2026-05-09 17:36 | 47.04760 | -40.11302 | 53919 ft | 1145 kts | 75° |
| 2026-05-09 17:36 | 47.08766 | -39.88713 | 53943 ft | 1145 kts | 75° |
| 2026-05-09 17:37 | 47.12742 | -39.66029 | 53966 ft | 1145 kts | 76° |
| 2026-05-09 17:37 | 47.16675 | -39.43347 | 53994 ft | 1145 kts | 76° |
| 2026-05-09 17:38 | 47.20564 | -39.20638 | 54019 ft | 1144 kts | 76° |
| 2026-05-09 17:39 | 47.26303 | -38.86550 | 54059 ft | 1144 kts | 76° |
| 2026-05-09 17:39 | 47.30069 | -38.63781 | 54086 ft | 1144 kts | 76° |
| 2026-05-09 17:40 | 47.33764 | -38.41128 | 54114 ft | 1143 kts | 76° |
| 2026-05-09 17:40 | 47.37437 | -38.18300 | 54141 ft | 1143 kts | 77° |
| 2026-05-09 17:41 | 47.41062 | -37.95466 | 54168 ft | 1142 kts | 77° |
| 2026-05-09 17:41 | 47.44645 | -37.72586 | 54195 ft | 1142 kts | 77° |
| 2026-05-09 17:42 | 47.48179 | -37.49710 | 54222 ft | 1142 kts | 77° |
| 2026-05-09 17:42 | 47.51667 | -37.26801 | 54250 ft | 1142 kts | 77° |
| 2026-05-09 17:43 | 47.55112 | -37.03841 | 54277 ft | 1142 kts | 77° |
| 2026-05-09 17:43 | 47.58487 | -36.81009 | 54305 ft | 1142 kts | 77° |
| 2026-05-09 17:44 | 47.61842 | -36.57975 | 54334 ft | 1142 kts | 78° |
| 2026-05-09 17:44 | 47.65148 | -36.34934 | 54356 ft | 1143 kts | 78° |
| 2026-05-09 17:45 | 47.68406 | -36.11873 | 54382 ft | 1143 kts | 78° |
| 2026-05-09 17:45 | 47.71623 | -35.88747 | 54407 ft | 1143 kts | 78° |
| 2026-05-09 17:46 | 47.74789 | -35.65623 | 54434 ft | 1142 kts | 78° |
| 2026-05-09 17:46 | 47.77908 | -35.42475 | 54460 ft | 1142 kts | 78° |
| 2026-05-09 17:47 | 47.80983 | -35.19281 | 54489 ft | 1142 kts | 78° |
| 2026-05-09 17:47 | 47.83990 | -34.96223 | 54512 ft | 1142 kts | 79° |
| 2026-05-09 17:48 | 47.86976 | -34.72944 | 54537 ft | 1142 kts | 79° |
| 2026-05-09 17:48 | 47.89911 | -34.49671 | 54559 ft | 1142 kts | 79° |
| 2026-05-09 17:49 | 47.92796 | -34.26392 | 54583 ft | 1142 kts | 79° |
| 2026-05-09 17:49 | 47.95615 | -34.03243 | 54605 ft | 1142 kts | 79° |
| 2026-05-09 17:50 | 47.98410 | -33.79883 | 54628 ft | 1142 kts | 79° |
| 2026-05-09 17:50 | 48.02049 | -33.48813 | 54663 ft | 1141 kts | 80° |
| 2026-05-09 17:51 | 48.05173 | -33.21515 | 54690 ft | 1140 kts | 80° |
| 2026-05-09 17:51 | 48.07798 | -32.98106 | 54716 ft | 1140 kts | 80° |
| 2026-05-09 17:52 | 48.10374 | -32.74677 | 54756 ft | 1140 kts | 80° |
| 2026-05-09 17:52 | 48.12884 | -32.51408 | 54788 ft | 1140 kts | 81° |
| 2026-05-09 17:53 | 48.15362 | -32.27966 | 54816 ft | 1139 kts | 81° |
| 2026-05-09 17:53 | 48.17791 | -32.04513 | 54842 ft | 1139 kts | 81° |
| 2026-05-09 17:54 | 48.20176 | -31.81011 | 54868 ft | 1139 kts | 81° |
| 2026-05-09 17:54 | 48.22510 | -31.57505 | 54892 ft | 1140 kts | 81° |
| 2026-05-09 17:55 | 48.24797 | -31.33975 | 54919 ft | 1140 kts | 81° |
| 2026-05-09 17:55 | 48.27038 | -31.10407 | 54943 ft | 1140 kts | 82° |
| 2026-05-09 17:56 | 48.29158 | -30.86820 | 54965 ft | 1140 kts | 82° |
| 2026-05-09 17:57 | 48.31780 | -30.55445 | 54993 ft | 1141 kts | 82° |
| 2026-05-09 17:57 | 48.33806 | -30.31745 | 55017 ft | 1141 kts | 82° |
| 2026-05-09 17:58 | 48.35920 | -30.08076 | 55040 ft | 1142 kts | 82° |
| 2026-05-09 17:58 | 48.38074 | -29.84545 | 55063 ft | 1142 kts | 82° |
| 2026-05-09 17:59 | 48.40239 | -29.60855 | 55085 ft | 1142 kts | 82° |
| 2026-05-09 17:59 | 48.42298 | -29.37093 | 55102 ft | 1142 kts | 83° |
| 2026-05-09 18:00 | 48.44226 | -29.13358 | 55107 ft | 1143 kts | 83° |
| 2026-05-09 18:00 | 48.46062 | -28.89553 | 55114 ft | 1144 kts | 83° |
| 2026-05-09 18:01 | 48.47823 | -28.65874 | 55119 ft | 1145 kts | 83° |
| 2026-05-09 18:01 | 48.49556 | -28.42014 | 55120 ft | 1146 kts | 84° |
| 2026-05-09 18:02 | 48.51268 | -28.18098 | 55128 ft | 1146 kts | 84° |
| 2026-05-09 18:02 | 48.52957 | -27.94188 | 55138 ft | 1147 kts | 84° |
| 2026-05-09 18:03 | 48.54611 | -27.70215 | 55148 ft | 1147 kts | 84° |
| 2026-05-09 18:03 | 48.56207 | -27.46229 | 55160 ft | 1147 kts | 84° |
| 2026-05-09 18:04 | 48.57741 | -27.22246 | 55178 ft | 1147 kts | 84° |
| 2026-05-09 18:04 | 48.59210 | -26.98379 | 55193 ft | 1146 kts | 85° |
| 2026-05-09 18:05 | 48.60634 | -26.74373 | 55183 ft | 1146 kts | 85° |
| 2026-05-09 18:05 | 48.62010 | -26.50348 | 55181 ft | 1147 kts | 85° |
| 2026-05-09 18:06 | 48.63333 | -26.26444 | 55185 ft | 1146 kts | 85° |
| 2026-05-09 18:06 | 48.64618 | -26.02374 | 55191 ft | 1146 kts | 85° |
| 2026-05-09 18:07 | 48.65853 | -25.78319 | 55199 ft | 1147 kts | 85° |
| 2026-05-09 18:07 | 48.67036 | -25.54269 | 55214 ft | 1147 kts | 86° |
| 2026-05-09 18:08 | 48.68170 | -25.30162 | 55232 ft | 1147 kts | 86° |
| 2026-05-09 18:08 | 48.69251 | -25.06077 | 55252 ft | 1147 kts | 86° |
| 2026-05-09 18:09 | 48.70274 | -24.82145 | 55261 ft | 1146 kts | 86° |
| 2026-05-09 18:09 | 48.71255 | -24.58044 | 55272 ft | 1147 kts | 86° |
| 2026-05-09 18:10 | 48.72188 | -24.33870 | 55267 ft | 1150 kts | 86° |
| 2026-05-09 18:10 | 48.73072 | -24.09652 | 55287 ft | 1151 kts | 87° |
| 2026-05-09 18:11 | 48.73906 | -23.85431 | 55312 ft | 1150 kts | 87° |
| 2026-05-09 18:11 | 48.74684 | -23.61350 | 55332 ft | 1150 kts | 87° |
| 2026-05-09 18:12 | 48.75415 | -23.37131 | 55353 ft | 1150 kts | 87° |
| 2026-05-09 18:12 | 48.76096 | -23.12877 | 55370 ft | 1151 kts | 88° |
| 2026-05-09 18:13 | 48.76726 | -22.88620 | 55396 ft | 1151 kts | 88° |
| 2026-05-09 18:13 | 48.77305 | -22.64366 | 55420 ft | 1151 kts | 88° |
| 2026-05-09 18:14 | 48.77835 | -22.40084 | 55446 ft | 1151 kts | 88° |
| 2026-05-09 18:14 | 48.78313 | -22.15801 | 55473 ft | 1152 kts | 88° |
| 2026-05-09 18:15 | 48.78738 | -21.91672 | 55493 ft | 1153 kts | 89° |
| 2026-05-09 18:15 | 48.79114 | -21.67323 | 55516 ft | 1153 kts | 89° |
| 2026-05-09 18:16 | 48.79440 | -21.42943 | 55540 ft | 1153 kts | 89° |
| 2026-05-09 18:16 | 48.79713 | -21.18639 | 55565 ft | 1154 kts | 89° |
| 2026-05-09 18:17 | 48.79944 | -20.94437 | 55589 ft | 1154 kts | 89° |
| 2026-05-09 18:17 | 48.80156 | -20.70061 | 55615 ft | 1155 kts | 89° |
| 2026-05-09 18:18 | 48.80328 | -20.45681 | 55640 ft | 1155 kts | 90° |
| 2026-05-09 18:18 | 48.80423 | -20.21309 | 55667 ft | 1155 kts | 90° |
| 2026-05-09 18:19 | 48.80372 | -19.96918 | 55693 ft | 1156 kts | 91° |
| 2026-05-09 18:19 | 48.80103 | -19.60299 | 55728 ft | 1157 kts | 91° |
| 2026-05-09 18:20 | 48.79844 | -19.36026 | 55755 ft | 1157 kts | 91° |
| 2026-05-09 18:20 | 48.79538 | -19.11593 | 55781 ft | 1158 kts | 91° |
| 2026-05-09 18:21 | 48.79197 | -18.87161 | 55808 ft | 1158 kts | 91° |
| 2026-05-09 18:21 | 48.78820 | -18.62726 | 55834 ft | 1159 kts | 91° |
| 2026-05-09 18:22 | 48.78400 | -18.38423 | 55861 ft | 1159 kts | 92° |
| 2026-05-09 18:22 | 48.77923 | -18.13963 | 55886 ft | 1160 kts | 92° |
| 2026-05-09 18:23 | 48.77386 | -17.89501 | 55911 ft | 1160 kts | 92° |
| 2026-05-09 18:23 | 48.76793 | -17.65057 | 55937 ft | 1161 kts | 92° |
| 2026-05-09 18:24 | 48.76145 | -17.40568 | 55963 ft | 1161 kts | 92° |
| 2026-05-09 18:25 | 48.75082 | -17.04007 | 56000 ft | 1161 kts | 93° |
| 2026-05-09 18:25 | 48.74308 | -16.79530 | 56020 ft | 1162 kts | 93° |
| 2026-05-09 18:26 | 48.73485 | -16.55068 | 56043 ft | 1163 kts | 93° |
| 2026-05-09 18:26 | 48.72608 | -16.30591 | 56065 ft | 1163 kts | 93° |
| 2026-05-09 18:27 | 48.71693 | -16.06129 | 56089 ft | 1163 kts | 93° |
| 2026-05-09 18:27 | 48.71100 | -15.81652 | 56111 ft | 1164 kts | 91° |
| 2026-05-09 18:28 | 48.70866 | -15.57275 | 56138 ft | 1164 kts | 90° |
| 2026-05-09 18:28 | 48.70896 | -15.32733 | 56164 ft | 1164 kts | 90° |
| 2026-05-09 18:29 | 48.71151 | -15.08204 | 56196 ft | 1164 kts | 89° |
| 2026-05-09 18:29 | 48.71612 | -14.83647 | 56228 ft | 1165 kts | 88° |
| 2026-05-09 18:30 | 48.72260 | -14.59150 | 56262 ft | 1165 kts | 88° |
| 2026-05-09 18:30 | 48.73069 | -14.34770 | 56300 ft | 1165 kts | 87° |
| 2026-05-09 18:31 | 48.74038 | -14.10276 | 56337 ft | 1165 kts | 86° |